createdAt,value
2023-04-07T00:15:20.012Z,1.83
2023-04-07T00:22:45.593Z,1.90
2023-04-07T00:25:12.635Z,2.00
2023-04-07T00:27:39.854Z,1.80
2023-04-07T00:30:07.794Z,1.63
2023-04-07T00:32:35.362Z,2.30
2023-04-07T00:35:03.683Z,1.77
2023-04-07T00:37:30.996Z,1.97
2023-04-07T00:39:59.342Z,1.57
2023-04-07T00:42:26.442Z,2.00
2023-04-07T00:44:53.327Z,1.90
2023-04-07T00:47:20.688Z,1.97
2023-04-07T00:49:47.892Z,1.80
2023-04-07T00:52:15.455Z,2.00
2023-04-07T00:54:43.398Z,1.90
2023-04-07T00:57:10.568Z,2.10
2023-04-07T00:59:37.778Z,2.00
2023-04-07T01:02:23.461Z,1.90
2023-04-07T01:05:24.015Z,2.17
2023-04-07T01:08:19.802Z,2.17
2023-04-07T01:10:56.154Z,2.07
2023-04-07T01:13:45.644Z,1.80
2023-04-07T01:16:27.548Z,2.37
2023-04-07T01:20:08.582Z,2.07
2023-04-07T01:22:51.324Z,2.40
2023-04-07T01:25:30.592Z,2.50
2023-04-07T01:28:09.296Z,2.63
2023-04-07T01:30:40.150Z,2.70
2023-04-07T01:33:08.486Z,2.53
2023-04-07T01:35:37.188Z,2.50
2023-04-07T01:38:05.381Z,2.60
2023-04-07T01:40:35.564Z,2.87
2023-04-07T01:43:03.760Z,2.63
2023-04-07T01:45:32.202Z,3.00
2023-04-07T01:47:59.793Z,2.43
2023-04-07T01:50:27.587Z,2.80
2023-04-07T01:52:54.755Z,3.47
2023-04-07T01:55:25.203Z,2.83
2023-04-07T01:57:54.459Z,2.77
2023-04-07T02:00:21.774Z,3.00
2023-04-07T02:02:52.373Z,2.60
2023-04-07T02:05:21.955Z,2.70
2023-04-07T02:07:52.126Z,2.90
2023-04-07T02:10:22.748Z,2.73
2023-04-07T02:12:49.952Z,2.27
2023-04-07T02:15:17.893Z,3.03
2023-04-07T02:17:49.254Z,3.30
2023-04-07T02:20:17.668Z,3.77
2023-04-07T02:22:44.946Z,3.10
2023-04-07T02:25:22.267Z,3.20
2023-04-07T02:27:49.616Z,3.73
2023-04-07T02:30:16.668Z,3.23
2023-04-07T02:32:43.673Z,2.93
2023-04-07T02:35:15.652Z,3.20
2023-04-07T02:37:43.795Z,3.40
2023-04-07T02:40:11.147Z,3.43
2023-04-07T02:42:38.366Z,3.43
2023-04-07T02:45:06.854Z,2.70
2023-04-07T02:47:34.543Z,2.67
2023-04-07T02:50:01.688Z,3.57
2023-04-07T02:52:31.151Z,3.33
2023-04-07T02:54:58.053Z,3.07
2023-04-07T02:57:25.143Z,3.40
2023-04-07T02:59:52.030Z,3.87
2023-04-07T03:02:19.004Z,4.20
2023-04-07T03:04:46.386Z,3.53
2023-04-07T03:07:13.271Z,4.30
2023-04-07T03:09:40.154Z,4.57
2023-04-07T03:12:07.434Z,3.97
2023-04-07T03:14:34.495Z,4.87
2023-04-07T03:17:01.521Z,5.27
2023-04-07T03:19:28.718Z,3.93
2023-04-07T03:21:55.724Z,3.90
2023-04-07T03:24:22.846Z,4.50
2023-04-07T03:26:51.509Z,4.63
2023-04-07T03:29:19.119Z,3.10
2023-04-07T03:31:46.682Z,4.70
2023-04-07T03:34:14.125Z,3.97
2023-04-07T03:36:41.243Z,4.80
2023-04-07T03:39:08.172Z,4.27
2023-04-07T03:41:35.576Z,4.30
2023-04-07T03:44:02.617Z,2.93
2023-04-07T03:46:35.898Z,3.97
2023-04-07T03:49:03.311Z,3.80
2023-04-07T03:51:30.378Z,4.70
2023-04-07T03:53:57.275Z,4.30
2023-04-07T03:56:25.664Z,3.70
2023-04-07T03:58:53.516Z,4.70
2023-04-07T04:01:20.517Z,4.00
2023-04-07T04:03:47.810Z,4.20
2023-04-07T04:06:14.795Z,4.57
2023-04-07T04:08:41.736Z,4.87
2023-04-07T04:11:09.060Z,3.50
2023-04-07T04:13:36.353Z,4.87
2023-04-07T04:16:03.482Z,5.23
2023-04-07T04:18:30.629Z,4.20
2023-04-07T04:20:57.611Z,4.70
2023-04-07T04:23:24.766Z,4.30
2023-04-07T04:25:51.935Z,5.30
2023-04-07T04:28:18.984Z,4.80
2023-04-07T04:30:45.878Z,5.30
2023-04-07T04:33:12.909Z,4.57
2023-04-07T04:35:39.897Z,3.10
2023-04-07T04:38:06.919Z,4.20
2023-04-07T04:40:34.005Z,4.97
2023-04-07T04:43:00.908Z,3.00
2023-04-07T04:45:27.814Z,3.53
2023-04-07T04:47:54.918Z,4.27
2023-04-07T04:50:22.303Z,4.03
2023-04-07T04:52:49.313Z,4.77
2023-04-07T04:55:16.439Z,4.37
2023-04-07T04:57:43.432Z,4.57
2023-04-07T05:00:11.042Z,5.13
2023-04-07T05:02:38.280Z,4.53
2023-04-07T05:05:06.063Z,4.60
2023-04-07T05:07:33.322Z,5.37
2023-04-07T05:10:01.991Z,4.13
2023-04-07T05:12:29.039Z,3.73
2023-04-07T05:14:56.120Z,4.63
2023-04-07T05:17:23.213Z,4.67
2023-04-07T05:19:50.367Z,8.17
2023-04-07T05:22:17.437Z,5.23
2023-04-07T05:24:44.452Z,4.33
2023-04-07T05:27:11.597Z,4.77
2023-04-07T05:29:38.541Z,4.80
2023-04-07T05:32:07.062Z,5.37
2023-04-07T05:34:34.158Z,4.20
2023-04-07T05:37:01.177Z,4.10
2023-04-07T05:39:31.652Z,4.50
2023-04-07T05:41:58.946Z,4.00
2023-04-07T05:44:26.201Z,3.70
2023-04-07T05:49:37.343Z,4.77
2023-04-07T05:52:06.278Z,4.27
2023-04-07T05:54:33.336Z,4.60
2023-04-07T05:57:02.807Z,4.53
2023-04-07T05:59:29.961Z,4.90
2023-04-07T06:02:05.637Z,5.13
2023-04-07T06:04:43.316Z,5.03
2023-04-07T06:07:23.483Z,4.20
2023-04-07T06:09:52.744Z,3.87
2023-04-07T06:12:19.821Z,4.27
2023-04-07T06:14:53.365Z,4.87
2023-04-07T06:17:20.747Z,4.27
2023-04-07T06:19:48.190Z,4.57
2023-04-07T06:22:15.951Z,4.63
2023-04-07T06:24:42.958Z,3.07
2023-04-07T06:27:09.893Z,4.60
2023-04-07T06:29:39.984Z,4.30
2023-04-07T06:32:07.636Z,4.97
2023-04-07T06:34:34.607Z,4.50
2023-04-07T06:37:01.809Z,4.57
2023-04-07T06:39:30.888Z,4.23
2023-04-07T06:42:02.669Z,3.10
2023-04-07T06:44:29.784Z,3.40
2023-04-07T06:46:56.722Z,3.73
2023-04-07T06:49:23.649Z,3.53
2023-04-07T06:51:58.660Z,3.20
2023-04-07T06:54:25.889Z,2.93
2023-04-07T06:57:02.353Z,2.83
2023-04-07T06:59:30.173Z,3.60
2023-04-07T07:01:57.980Z,3.57
2023-04-07T07:04:26.103Z,3.47
2023-04-07T07:07:03.280Z,3.20
2023-04-07T07:13:14.075Z,3.53
2023-04-07T07:15:41.394Z,3.40
2023-04-07T07:18:11.186Z,2.47
2023-04-07T07:20:38.197Z,3.17
2023-04-07T07:23:05.566Z,3.67
2023-04-07T07:25:32.833Z,2.93
2023-04-07T07:28:00.338Z,3.10
2023-04-07T07:30:27.437Z,3.50
2023-04-07T07:32:55.404Z,3.93
2023-04-07T07:35:22.994Z,3.33
2023-04-07T07:37:49.947Z,3.10
2023-04-07T07:40:17.107Z,2.50
2023-04-07T07:42:44.766Z,2.43
2023-04-07T07:45:13.504Z,2.30
2023-04-07T07:47:41.541Z,3.00
2023-04-07T07:50:14.090Z,2.47
2023-04-07T07:52:43.347Z,2.97
2023-04-07T07:55:10.920Z,2.90
2023-04-07T07:57:37.992Z,2.10
2023-04-07T08:00:06.082Z,2.30
2023-04-07T08:02:34.151Z,2.43
2023-04-07T08:05:03.628Z,1.73
2023-04-07T08:07:31.916Z,2.50
2023-04-07T08:09:59.144Z,1.10
2023-04-07T08:12:26.276Z,1.93
2023-04-07T08:14:53.494Z,2.33
2023-04-07T08:17:20.540Z,1.90
2023-04-07T08:19:47.630Z,1.93
2023-04-07T08:22:14.628Z,2.00
2023-04-07T08:24:42.398Z,2.97
2023-04-07T08:27:12.268Z,2.00
2023-04-07T08:29:39.366Z,1.90
2023-04-07T08:32:07.334Z,2.60
2023-04-07T08:34:34.422Z,1.80
2023-04-07T08:39:47.973Z,1.30
2023-04-07T09:08:03.705Z,1.10
2023-04-07T09:10:31.641Z,1.30
2023-04-07T09:13:00.085Z,1.10
2023-04-07T09:15:32.102Z,1.50
2023-04-07T09:18:00.073Z,0.87
2023-04-07T09:20:27.240Z,1.23
2023-04-07T09:22:54.507Z,1.10
2023-04-07T09:25:24.155Z,1.73
2023-04-07T09:28:02.393Z,1.27
2023-04-07T09:30:31.540Z,1.53
2023-04-07T09:32:59.913Z,1.13
2023-04-07T09:35:28.974Z,0.80
2023-04-07T09:38:07.836Z,1.40
2023-04-07T09:40:35.708Z,1.23
2023-04-07T09:43:06.721Z,1.37
2023-04-07T09:45:37.029Z,1.20
2023-04-07T09:48:08.985Z,1.00
2023-04-07T09:50:49.729Z,1.47
2023-04-07T09:53:18.270Z,1.90
2023-04-07T09:55:46.170Z,1.40
2023-04-07T09:58:14.599Z,1.50
2023-04-07T10:00:42.488Z,1.50
2023-04-07T10:03:10.032Z,1.43
2023-04-07T10:05:38.970Z,1.20
2023-04-07T10:08:07.166Z,1.90
2023-04-07T10:10:35.548Z,1.00
2023-04-07T10:13:06.344Z,1.37
2023-04-07T10:15:33.970Z,1.60
2023-04-07T10:18:02.913Z,3.87
2023-04-07T10:20:30.607Z,1.60
2023-04-07T10:23:08.248Z,2.00
2023-04-07T10:25:37.305Z,1.87
2023-04-07T10:28:08.149Z,1.57
2023-04-07T10:30:35.987Z,1.73
2023-04-07T10:33:03.303Z,1.37
2023-04-07T10:36:07.144Z,1.40
2023-04-07T10:38:36.849Z,2.33
2023-04-07T10:41:33.904Z,1.80
2023-04-07T10:44:03.036Z,2.03
2023-04-07T10:55:33.579Z,0.93
2023-04-07T11:03:58.648Z,1.20
2023-04-07T11:09:21.090Z,1.43
2023-04-07T11:35:16.423Z,1.40
2023-04-07T11:37:43.824Z,1.40
2023-04-07T11:40:11.589Z,1.20
2023-04-07T11:42:41.974Z,1.80
2023-04-07T11:45:22.363Z,0.63
2023-04-07T11:47:51.023Z,0.70
2023-04-07T11:50:37.909Z,0.90
2023-04-07T11:53:04.923Z,1.13
2023-04-07T11:55:32.223Z,1.30
2023-04-07T11:58:12.655Z,1.20
2023-04-07T12:00:57.641Z,1.30
2023-04-07T12:03:26.398Z,1.20
2023-04-07T12:05:54.665Z,0.87
2023-04-07T12:08:22.928Z,1.10
2023-04-07T12:11:03.092Z,1.20
2023-04-07T12:13:41.922Z,1.40
2023-04-07T12:20:21.618Z,2.40
2023-04-07T12:22:48.760Z,1.90
2023-04-07T12:25:15.990Z,1.60
2023-04-07T12:27:43.926Z,1.30
2023-04-07T12:30:12.959Z,1.83
2023-04-07T12:32:40.343Z,1.13
2023-04-07T12:35:07.531Z,2.30
2023-04-07T12:37:34.613Z,1.50
2023-04-07T12:40:01.652Z,1.90
2023-04-07T12:42:28.771Z,1.60
2023-04-07T12:44:56.750Z,1.37
2023-04-07T12:47:24.009Z,2.13
2023-04-07T12:49:51.248Z,1.77
2023-04-07T12:52:18.132Z,1.50
2023-04-07T12:54:45.667Z,1.50
2023-04-07T12:57:12.871Z,1.30
2023-04-07T12:59:40.075Z,1.30
2023-04-07T15:28:17.525Z,3.23
2023-04-07T15:30:46.115Z,2.03
2023-04-07T15:33:13.049Z,1.43
2023-04-07T15:35:42.509Z,2.13
2023-04-07T15:38:09.824Z,2.03
2023-04-07T15:40:37.631Z,2.17
2023-04-07T15:43:04.559Z,2.80
2023-04-07T15:45:31.629Z,1.87
2023-04-07T15:47:58.871Z,1.90
2023-04-07T15:50:25.925Z,1.83
2023-04-07T15:52:52.894Z,1.60
2023-04-07T15:55:19.987Z,1.63
2023-04-07T15:57:47.030Z,1.93
2023-04-07T16:00:14.776Z,4.20
2023-04-07T16:02:41.959Z,1.50
2023-04-07T16:05:09.283Z,2.10
2023-04-07T16:07:36.452Z,2.00
2023-04-07T16:10:04.136Z,1.97
2023-04-07T16:12:34.385Z,2.50
2023-04-07T16:15:01.330Z,2.50
2023-04-07T16:17:28.584Z,2.50
2023-04-07T16:19:55.582Z,1.60
2023-04-07T16:22:22.491Z,1.00
2023-04-07T16:24:49.479Z,1.17
2023-04-07T16:27:16.522Z,3.97
2023-04-07T16:29:43.448Z,1.70
2023-04-07T16:32:10.595Z,1.60
2023-04-07T16:34:37.556Z,3.37
2023-04-07T16:37:04.756Z,1.20
2023-04-07T16:39:31.698Z,2.30
2023-04-07T16:41:58.710Z,2.23
2023-04-07T16:44:26.018Z,2.10
2023-04-07T16:46:53.054Z,1.73
2023-04-07T16:49:19.941Z,5.57
2023-04-07T16:51:46.916Z,2.57
2023-04-07T16:54:13.873Z,1.83
2023-04-07T16:56:41.123Z,2.40
2023-04-07T16:59:08.128Z,2.40
2023-04-07T17:01:35.132Z,2.00
2023-04-07T17:04:02.383Z,2.77
2023-04-07T17:06:29.382Z,3.10
2023-04-07T17:08:56.330Z,2.07
2023-04-07T17:11:23.220Z,2.50
2023-04-07T17:13:55.301Z,1.73
2023-04-07T17:16:24.142Z,2.07
2023-04-07T17:18:51.748Z,2.23
2023-04-07T17:21:18.650Z,2.30
2023-04-07T17:23:45.687Z,4.57
2023-04-07T17:26:12.569Z,2.10
2023-04-07T17:28:39.503Z,2.23
2023-04-07T17:31:06.648Z,1.87
2023-04-07T17:33:33.710Z,2.47
2023-04-07T17:36:03.582Z,2.50
2023-04-07T17:38:31.076Z,2.37
2023-04-07T17:41:04.652Z,2.77
2023-04-07T17:43:31.851Z,3.03
2023-04-07T17:45:58.777Z,2.27
2023-04-07T17:48:25.856Z,2.60
2023-04-07T17:50:52.732Z,2.60
2023-04-07T17:53:19.801Z,2.20
2023-04-07T17:55:46.872Z,2.90
2023-04-07T17:58:13.776Z,2.73
2023-04-07T18:00:40.626Z,3.53
2023-04-07T18:03:08.043Z,2.50
2023-04-07T18:05:36.815Z,2.43
2023-04-07T18:08:03.829Z,2.27
2023-04-07T18:10:30.846Z,3.73
2023-04-07T18:12:57.798Z,3.33
2023-04-07T18:15:24.681Z,2.50
2023-04-07T18:17:53.297Z,2.17
2023-04-07T18:20:20.686Z,2.30
2023-04-07T18:22:50.301Z,2.70
2023-04-07T18:25:17.600Z,3.13
2023-04-07T18:27:44.721Z,2.97
2023-04-07T18:30:16.328Z,2.37
2023-04-07T18:32:44.285Z,3.13
2023-04-07T18:35:11.263Z,4.13
2023-04-07T18:37:38.178Z,2.70
2023-04-07T18:40:05.746Z,3.33
2023-04-07T18:42:32.789Z,2.83
2023-04-07T18:44:59.679Z,2.63
2023-04-07T18:47:29.095Z,2.80
2023-04-07T18:49:58.286Z,2.93
2023-04-07T18:52:26.536Z,3.47
2023-04-07T18:54:53.496Z,2.93
2023-04-07T18:57:20.356Z,3.40
2023-04-07T18:59:47.225Z,4.13
2023-04-07T19:02:14.328Z,3.03
2023-04-07T19:04:41.478Z,3.00
2023-04-07T19:07:08.445Z,3.27
2023-04-07T19:09:36.913Z,2.90
2023-04-07T19:12:04.366Z,2.70
2023-04-07T19:14:31.404Z,2.70
2023-04-07T19:16:58.435Z,2.83
2023-04-07T19:19:26.042Z,2.97
2023-04-07T19:21:58.177Z,3.50
2023-04-07T19:24:26.072Z,2.53
2023-04-07T19:26:53.109Z,2.33
2023-04-07T19:29:19.973Z,3.03
2023-04-07T19:34:37.767Z,2.20
2023-04-07T19:37:04.659Z,3.30
2023-04-07T19:39:31.573Z,2.50
2023-04-07T19:41:58.564Z,4.87
2023-04-07T19:44:26.388Z,3.80
2023-04-07T19:46:53.567Z,2.07
2023-04-07T19:49:20.479Z,2.37
2023-04-07T19:51:48.048Z,3.23
2023-04-07T19:54:14.990Z,2.83
2023-04-07T19:56:41.947Z,3.30
2023-04-07T19:59:08.856Z,2.97
2023-04-07T20:01:36.126Z,3.00
2023-04-07T20:04:03.789Z,2.80
2023-04-07T20:06:32.963Z,3.00
2023-04-07T20:09:01.004Z,2.57
2023-04-07T20:11:28.026Z,3.40
2023-04-07T20:13:54.914Z,2.10
2023-04-07T20:16:21.920Z,4.60
2023-04-07T20:18:49.343Z,2.60
2023-04-07T20:21:16.413Z,2.90
2023-04-07T20:23:43.414Z,2.20
2023-04-07T20:26:10.618Z,2.30
2023-04-07T20:28:37.546Z,2.30
2023-04-07T20:31:04.489Z,2.27
2023-04-07T20:33:31.808Z,3.60
2023-04-07T20:35:58.781Z,2.37
2023-04-07T20:38:25.737Z,2.07
2023-04-07T20:40:53.307Z,3.03
2023-04-07T20:43:22.083Z,2.10
2023-04-07T20:45:49.548Z,2.10
2023-04-07T20:48:17.364Z,2.13
2023-04-07T20:50:44.859Z,5.80
2023-04-07T20:53:11.864Z,2.10
2023-04-07T20:55:38.807Z,2.10
2023-04-07T20:58:05.794Z,4.30
2023-04-07T21:00:32.645Z,3.43
2023-04-07T21:02:59.741Z,1.60
2023-04-07T21:05:26.872Z,2.13
2023-04-07T21:07:53.786Z,1.87
2023-04-07T21:10:20.866Z,1.80
2023-04-07T21:12:47.786Z,1.60
2023-04-07T21:15:15.176Z,1.73
2023-04-07T21:17:42.127Z,1.40
2023-04-07T21:20:09.790Z,1.70
2023-04-07T21:22:36.840Z,2.10
2023-04-07T21:25:07.099Z,1.70
2023-04-07T21:27:34.617Z,1.70
2023-04-07T21:30:04.932Z,2.70
2023-04-07T21:32:33.111Z,1.60
2023-04-07T21:35:00.909Z,1.87
2023-04-07T21:37:27.838Z,1.50
2023-04-07T21:39:54.986Z,1.53
2023-04-07T21:42:22.570Z,2.03
2023-04-07T21:44:49.511Z,1.87
2023-04-07T21:47:17.720Z,1.93
2023-04-07T21:49:44.645Z,1.90
2023-04-07T21:52:11.528Z,2.13
2023-04-07T21:54:38.539Z,2.10
2023-04-07T21:57:05.703Z,1.90
2023-04-07T21:59:32.806Z,1.53
2023-04-07T22:02:00.822Z,2.30
2023-04-07T22:04:28.929Z,2.00
2023-04-07T22:06:56.593Z,1.67
2023-04-07T22:09:23.730Z,1.43
2023-04-07T22:11:51.696Z,2.00
2023-04-07T22:14:24.879Z,2.27
2023-04-07T22:16:52.458Z,1.40
2023-04-07T22:19:19.492Z,1.53
2023-04-07T22:21:47.708Z,3.00
2023-04-07T22:24:14.669Z,2.60
2023-04-07T22:26:41.577Z,1.80
2023-04-07T22:29:09.669Z,1.90
2023-04-07T22:31:36.640Z,2.43
2023-04-07T22:34:03.664Z,1.97
2023-04-07T22:36:31.570Z,1.80
2023-04-07T22:38:58.621Z,2.07
2023-04-07T22:41:26.930Z,2.03
2023-04-07T22:43:54.006Z,1.67
2023-04-07T22:46:21.130Z,1.97
2023-04-07T22:48:49.278Z,2.30
2023-04-07T22:51:16.564Z,1.80
2023-04-07T22:53:43.500Z,1.60
2023-04-07T22:56:10.646Z,2.10
2023-04-07T22:58:37.724Z,2.10
2023-04-07T23:01:04.849Z,1.90
2023-04-07T23:03:32.289Z,2.40
2023-04-07T23:06:01.383Z,2.20
2023-04-07T23:08:28.339Z,1.67
2023-04-07T23:11:01.141Z,1.67
2023-04-07T23:13:28.205Z,1.90
2023-04-07T23:15:55.544Z,2.20
2023-04-07T23:18:22.508Z,2.10
2023-04-07T23:20:52.854Z,2.47
2023-04-07T23:23:19.839Z,2.17
2023-04-07T23:25:46.761Z,1.63
2023-04-07T23:28:17.052Z,2.23
2023-04-07T23:30:43.979Z,1.93
2023-04-07T23:33:10.927Z,1.73
2023-04-07T23:35:38.233Z,1.87
2023-04-07T23:38:05.263Z,1.20
2023-04-07T23:40:32.148Z,1.83
2023-04-07T23:42:59.074Z,1.27
2023-04-07T23:45:26.122Z,1.70
2023-04-07T23:47:53.047Z,1.67
2023-04-07T23:50:20.126Z,2.30
2023-04-07T23:52:47.079Z,2.83
2023-04-07T23:55:14.131Z,1.53
2023-04-07T23:57:41.306Z,1.23
